Time;durP1;ratioP1;P1;durP2;ratioP2;P2;SDS_P1;SDS_P2;PMS_P1;PMS_P2;Temp;Humidity;BMP_temperature;BMP_pressure;BME280_temperature;BME280_humidity;BME280_pressure;Samples;Min_cycle;Max_cycle;Signal;HPM_P1;HPM_P2
2024/01/21 00:00:18;;;;;;;3.93;3.83;;;;;;;0.31;49.88;102229.00;4956987;28;20234;-72
2024/01/21 00:02:44;;;;;;;4.67;4.50;;;;;;;0.35;49.88;102227.13;4957009;28;20270;-72
2024/01/21 00:05:11;;;;;;;7.53;4.13;;;;;;;0.41;49.27;102229.56;4957479;28;20202;-72
2024/01/21 00:07:38;;;;;;;4.50;4.37;;;;;;;0.45;48.72;102221.53;4956890;28;20341;-71
2024/01/21 00:10:07;;;;;;;7.43;4.80;;;;;;;0.49;49.19;102221.41;4956894;28;20270;-71
2024/01/21 00:12:34;;;;;;;5.20;5.00;;;;;;;0.50;48.38;102216.09;4956802;28;20194;-71
2024/01/21 00:15:00;;;;;;;4.03;3.93;;;;;;;0.52;48.14;102200.25;4957325;28;20277;-71
2024/01/21 00:17:26;;;;;;;3.73;3.63;;;;;;;0.66;46.51;102187.50;4956971;28;20214;-71
2024/01/21 00:19:53;;;;;;;3.10;3.10;;;;;;;0.80;46.05;102178.22;4956641;28;20202;-72
2024/01/21 00:22:19;;;;;;;4.10;3.93;;;;;;;0.86;45.63;102167.47;4956656;28;20195;-72
2024/01/21 00:24:46;;;;;;;3.90;3.70;;;;;;;0.93;46.20;102164.63;4956632;28;20241;-72
2024/01/21 00:27:12;;;;;;;4.00;3.90;;;;;;;0.98;45.75;102162.69;4956528;28;20206;-72
2024/01/21 00:29:39;;;;;;;4.00;3.90;;;;;;;1.02;45.27;102166.94;4956784;28;20185;-72
2024/01/21 00:32:05;;;;;;;3.60;3.30;;;;;;;1.13;44.00;102159.47;4956513;28;20214;-72
2024/01/21 00:34:32;;;;;;;4.70;4.53;;;;;;;1.26;43.96;102153.72;4956417;28;20198;-72
2024/01/21 00:36:58;;;;;;;4.27;4.17;;;;;;;1.26;43.84;102152.84;4955868;28;20559;-72
2024/01/21 00:39:25;;;;;;;3.70;3.37;;;;;;;1.38;42.95;102150.59;4956272;28;20211;-72
2024/01/21 00:41:51;;;;;;;3.47;3.30;;;;;;;1.43;42.74;102144.31;4956451;28;20201;-72
2024/01/21 00:44:30;;;;;;;3.53;3.43;;;;;;;1.49;43.00;102136.13;4956850;28;20208;-72
2024/01/21 00:46:57;;;;;;;3.33;3.33;;;;;;;1.52;42.16;102133.41;4956405;28;20606;-72
2024/01/21 00:49:23;;;;;;;2.90;2.90;;;;;;;1.55;42.63;102128.00;4956408;28;20181;-72
2024/01/21 00:51:50;;;;;;;3.60;3.57;;;;;;;1.63;41.91;102128.56;4956136;28;20718;-72
2024/01/21 00:54:17;;;;;;;3.10;3.00;;;;;;;1.61;42.55;102115.44;4956619;28;20234;-72
2024/01/21 00:56:43;;;;;;;2.53;2.53;;;;;;;1.87;40.39;102116.19;4954825;29;20702;-72
2024/01/21 00:59:10;;;;;;;3.50;3.40;;;;;;;1.96;40.44;102106.13;4955803;28;20618;-72
2024/01/21 01:01:38;;;;;;;3.67;3.33;;;;;;;2.12;39.47;102103.72;4955940;28;20198;-72
2024/01/21 01:04:05;;;;;;;3.97;3.83;;;;;;;2.17;39.76;102093.81;4955921;28;20198;-72
2024/01/21 01:06:35;;;;;;;2.60;2.60;;;;;;;2.18;39.65;102093.75;4955769;28;20242;-71
2024/01/21 01:09:01;;;;;;;4.60;4.50;;;;;;;2.22;39.30;102097.97;4955831;28;20193;-72
2024/01/21 01:11:28;;;;;;;7.93;3.80;;;;;;;2.34;38.88;102090.44;4956303;28;20198;-72
2024/01/21 01:13:54;;;;;;;4.00;3.90;;;;;;;2.34;39.38;102088.66;4956028;28;20242;-72
2024/01/21 01:16:21;;;;;;;4.50;4.20;;;;;;;2.39;39.28;102099.03;4956204;28;20513;-71
2024/01/21 01:18:48;;;;;;;3.70;3.60;;;;;;;2.40;38.50;102092.84;4955589;28;20220;-71
2024/01/21 01:21:15;;;;;;;4.03;4.03;;;;;;;2.43;38.86;102095.34;4955600;28;20199;-72
2024/01/21 01:23:42;;;;;;;3.90;3.80;;;;;;;2.43;38.23;102092.69;4955850;28;20661;-72
2024/01/21 01:26:08;;;;;;;3.83;3.73;;;;;;;2.43;38.66;102084.78;4956033;28;20191;-72
2024/01/21 01:28:34;;;;;;;3.70;3.70;;;;;;;2.42;38.27;102083.09;4955533;28;20191;-72
2024/01/21 01:31:01;;;;;;;9.43;4.10;;;;;;;2.44;38.56;102079.44;4955486;28;20187;-72
2024/01/21 01:33:27;;;;;;;4.90;4.73;;;;;;;2.44;39.23;102086.50;4955419;28;20717;-72
2024/01/21 01:35:54;;;;;;;4.83;4.43;;;;;;;2.49;39.00;102076.59;4955403;28;20197;-72
2024/01/21 01:38:20;;;;;;;4.67;4.43;;;;;;;2.51;38.89;102080.03;4955319;28;20218;-71
2024/01/21 01:40:47;;;;;;;4.93;4.80;;;;;;;2.49;38.62;102077.47;4955813;28;20204;-71
2024/01/21 01:43:14;;;;;;;4.60;4.50;;;;;;;2.51;38.64;102080.03;4955314;28;20604;-71
2024/01/21 01:45:40;;;;;;;5.10;4.87;;;;;;;2.55;38.54;102071.91;4955298;28;20220;-71
2024/01/21 01:48:07;;;;;;;4.77;4.53;;;;;;;2.47;39.42;102066.09;4954867;28;20221;-71
2024/01/21 01:50:34;;;;;;;4.17;4.00;;;;;;;2.49;38.60;102060.78;4954811;28;20198;-71
2024/01/21 01:53:01;;;;;;;4.70;4.60;;;;;;;2.45;38.67;102061.84;4955228;28;20602;-71
2024/01/21 01:55:28;;;;;;;4.80;4.57;;;;;;;2.46;38.64;102067.03;4955172;28;20192;-71
2024/01/21 01:57:54;;;;;;;4.80;4.70;;;;;;;2.48;38.60;102059.91;4955549;28;20631;-71
2024/01/21 02:00:21;;;;;;;5.00;4.80;;;;;;;2.43;39.64;102055.75;4954984;28;20622;-72
2024/01/21 02:02:47;;;;;;;4.67;4.57;;;;;;;2.44;38.67;102054.84;4955374;28;20187;-72
2024/01/21 02:05:14;;;;;;;5.30;5.20;;;;;;;2.42;38.99;102054.06;4955350;28;20188;-72
2024/01/21 02:07:40;;;;;;;5.03;4.93;;;;;;;2.37;39.70;102050.75;4955021;28;20258;-72
2024/01/21 02:10:07;;;;;;;5.87;4.73;;;;;;;2.27;39.66;102043.25;4955026;28;20211;-72
2024/01/21 02:12:33;;;;;;;4.33;4.23;;;;;;;2.31;40.75;102041.31;4955059;28;20196;-72
2024/01/21 02:15:00;;;;;;;5.03;4.90;;;;;;;2.28;40.40;102046.75;4955302;28;20278;-72
2024/01/21 02:17:26;;;;;;;5.23;5.13;;;;;;;2.24;40.60;102045.16;4955074;28;20212;-72
2024/01/21 02:19:53;;;;;;;5.63;5.43;;;;;;;2.25;39.87;102038.94;4954906;28;20213;-72
2024/01/21 02:22:21;;;;;;;4.77;4.63;;;;;;;2.28;39.69;102025.63;4955208;28;20205;-72
2024/01/21 02:24:47;;;;;;;4.60;4.30;;;;;;;2.24;40.15;102018.78;4954961;28;20180;-72
2024/01/21 02:27:14;;;;;;;6.70;4.90;;;;;;;2.25;40.60;102013.41;4954883;28;20705;-72
2024/01/21 02:29:40;;;;;;;5.60;5.23;;;;;;;2.28;40.26;102007.16;4954875;28;20202;-72
2024/01/21 02:32:07;;;;;;;5.37;5.27;;;;;;;2.32;39.75;102005.25;4954293;29;20177;-72
2024/01/21 02:34:33;;;;;;;5.37;5.17;;;;;;;2.24;40.33;101998.53;4955365;28;20237;-72
2024/01/21 02:37:00;;;;;;;4.90;4.80;;;;;;;2.18;40.68;101998.78;4953943;29;20220;-72
2024/01/21 02:39:26;;;;;;;6.23;5.87;;;;;;;2.17;40.57;101990.94;4955032;28;20213;-72
2024/01/21 02:41:52;;;;;;;8.90;5.53;;;;;;;2.19;40.26;101991.72;4954766;28;20195;-72
2024/01/21 02:44:19;;;;;;;5.40;5.07;;;;;;;2.19;40.54;101987.31;4955017;28;20244;-73
2024/01/21 02:46:45;;;;;;;5.60;5.37;;;;;;;2.10;41.60;101985.06;4954673;28;20221;-72
2024/01/21 02:49:12;;;;;;;4.93;4.83;;;;;;;2.18;40.91;101988.22;4954678;28;20210;-72
2024/01/21 02:51:38;;;;;;;5.23;5.03;;;;;;;2.15;40.99;101976.97;4954621;28;20228;-72
2024/01/21 02:54:05;;;;;;;5.63;5.07;;;;;;;2.15;41.06;101976.97;4954920;28;20243;-72
2024/01/21 02:56:31;;;;;;;5.77;5.57;;;;;;;2.17;40.45;101977.72;4954882;28;20212;-72
2024/01/21 02:58:58;;;;;;;4.87;4.63;;;;;;;2.19;41.00;101965.34;4954526;28;20269;-72
2024/01/21 03:01:24;;;;;;;5.27;5.00;;;;;;;2.16;41.67;101960.22;4957224;28;20618;-72
2024/01/21 03:03:50;;;;;;;5.73;5.47;;;;;;;2.07;41.79;101963.25;4958098;28;20199;-72
2024/01/21 03:06:18;;;;;;;5.43;5.23;;;;;;;2.02;41.95;101954.69;4958494;28;20193;-72
2024/01/21 03:08:44;;;;;;;5.23;5.03;;;;;;;2.02;41.98;101959.97;4958299;28;20194;-72
2024/01/21 03:11:11;;;;;;;5.80;5.60;;;;;;;2.00;41.82;101954.75;4957955;28;20195;-72
2024/01/21 03:13:37;;;;;;;6.07;5.67;;;;;;;2.05;41.19;101952.75;4957930;28;20190;-72
2024/01/21 03:16:03;;;;;;;5.40;5.20;;;;;;;2.13;41.28;101952.41;4957906;28;20194;-72
2024/01/21 03:18:30;;;;;;;5.47;5.27;;;;;;;2.16;41.40;101952.31;4958056;28;20269;-72
2024/01/21 03:20:57;;;;;;;4.63;4.53;;;;;;;2.12;41.74;101946.28;4957697;28;20218;-72
2024/01/21 03:23:23;;;;;;;5.40;5.00;;;;;;;2.21;41.42;101945.88;4958540;28;20197;-72
2024/01/21 03:25:49;;;;;;;4.77;4.67;;;;;;;2.18;41.69;101940.75;4957712;28;20241;-72
2024/01/21 03:28:16;;;;;;;5.80;5.60;;;;;;;2.09;42.02;101929.75;4957678;28;20274;-71
2024/01/21 03:30:43;;;;;;;5.60;5.40;;;;;;;2.11;41.90;101934.03;4957853;28;20647;-72
2024/01/21 03:33:09;;;;;;;5.40;5.20;;;;;;;2.14;41.99;101931.25;4957834;28;20644;-72
2024/01/21 03:35:36;;;;;;;6.20;6.07;;;;;;;2.11;42.65;101922.63;4958040;28;20194;-72
2024/01/21 03:38:03;;;;;;;5.23;5.07;;;;;;;2.02;43.05;101905.44;4957547;28;20707;-72
2024/01/21 03:40:29;;;;;;;6.53;4.73;;;;;;;2.00;42.59;101903.78;4957372;28;20205;-72
2024/01/21 03:42:55;;;;;;;5.53;5.33;;;;;;;2.06;42.87;101909.66;4957680;28;20196;-72
2024/01/21 03:45:22;;;;;;;5.23;4.93;;;;;;;1.96;42.35;101907.47;4957374;28;20241;-72
2024/01/21 03:47:48;;;;;;;4.60;4.50;;;;;;;1.97;42.57;101893.38;4957820;28;20282;-72
2024/01/21 03:50:18;;;;;;;5.13;4.93;;;;;;;1.93;43.06;101889.16;4957299;28;20187;-72
2024/01/21 03:52:45;;;;;;;5.50;5.30;;;;;;;1.89;42.95;101901.63;4957808;28;20648;-72
2024/01/21 03:55:11;;;;;;;5.43;5.33;;;;;;;1.99;42.34;101895.03;4957454;28;20706;-72
2024/01/21 03:57:37;;;;;;;5.00;4.90;;;;;;;1.96;42.71;101895.16;4957163;28;20217;-71
2024/01/21 04:00:08;;;;;;;5.60;5.40;;;;;;;1.95;42.31;101890.81;4957133;28;20582;-72
2024/01/21 04:02:38;;;;;;;5.50;5.20;;;;;;;1.94;43.02;101893.50;4957106;28;20271;-72
2024/01/21 04:05:05;;;;;;;5.93;5.47;;;;;;;2.00;43.00;101882.69;4956992;28;20252;-72
2024/01/21 04:07:33;;;;;;;4.70;4.60;;;;;;;1.90;42.50;101887.53;4956940;28;20222;-72
2024/01/21 04:10:00;;;;;;;5.60;5.13;;;;;;;1.95;42.12;101872.38;4956901;28;20184;-72
2024/01/21 04:12:26;;;;;;;5.67;5.17;;;;;;;2.00;42.10;101864.22;4956075;28;20195;-72
2024/01/21 04:14:52;;;;;;;4.97;4.87;;;;;;;1.94;42.71;101857.47;4957096;28;20197;-72
2024/01/21 04:17:19;;;;;;;5.23;4.93;;;;;;;2.02;42.40;101865.03;4956983;28;20698;-71
2024/01/21 04:19:46;;;;;;;5.80;5.67;;;;;;;2.03;41.84;101857.03;4956659;28;20193;-72
2024/01/21 04:22:12;;;;;;;4.20;4.10;;;;;;;2.09;41.72;101853.25;4956711;28;20561;-72
2024/01/21 04:24:39;;;;;;;5.07;4.80;;;;;;;2.22;41.37;101849.13;4956652;28;20238;-72
2024/01/21 04:27:05;;;;;;;4.50;4.40;;;;;;;2.23;40.89;101849.06;4956569;28;20214;-71
2024/01/21 04:29:32;;;;;;;5.30;5.00;;;;;;;2.27;41.51;101839.22;4956550;28;20245;-72
2024/01/21 04:31:58;;;;;;;5.10;4.90;;;;;;;2.22;41.63;101830.66;4956557;28;20185;-72
2024/01/21 04:34:25;;;;;;;4.47;4.27;;;;;;;2.22;41.35;101835.94;4956536;28;20561;-72
2024/01/21 04:36:51;;;;;;;4.93;4.57;;;;;;;2.25;41.12;101836.66;4956390;28;20228;-72
2024/01/21 04:39:21;;;;;;;4.47;4.37;;;;;;;2.19;41.54;101823.75;4956365;28;20210;-72
2024/01/21 04:41:51;;;;;;;5.43;5.17;;;;;;;2.27;40.96;101836.59;4956842;28;20191;-72
2024/01/21 04:44:17;;;;;;;4.47;4.37;;;;;;;2.27;40.96;101818.97;4956529;29;20199;-72
2024/01/21 04:46:44;;;;;;;7.17;6.70;;;;;;;2.28;41.15;101819.84;4956602;28;20213;-72
2024/01/21 04:49:10;;;;;;;4.33;4.23;;;;;;;2.32;40.88;101799.44;4956186;28;20189;-72
2024/01/21 04:51:40;;;;;;;4.23;4.13;;;;;;;2.34;41.21;101792.28;4956121;28;20198;-71
2024/01/21 04:54:07;;;;;;;5.23;4.93;;;;;;;2.39;39.75;101800.84;4956085;28;20206;-72
2024/01/21 04:56:33;;;;;;;5.50;5.10;;;;;;;2.42;40.92;101795.44;4956322;28;20209;-72
2024/01/21 04:58:59;;;;;;;4.10;3.97;;;;;;;2.42;41.26;101790.16;4956351;28;20256;-72
2024/01/21 05:01:26;;;;;;;4.70;4.50;;;;;;;2.41;40.21;101775.25;4956203;28;20256;-72
2024/01/21 05:03:53;;;;;;;27.90;4.87;;;;;;;2.42;40.48;101787.53;4955961;28;20228;-72
2024/01/21 05:06:20;;;;;;;5.10;4.80;;;;;;;2.52;40.25;101771.16;4955858;28;20191;-72
2024/01/21 05:08:46;;;;;;;4.13;4.03;;;;;;;2.43;40.68;101771.59;4955855;28;20631;-72
2024/01/21 05:11:14;;;;;;;4.93;4.83;;;;;;;2.44;40.94;101778.59;4955828;28;20191;-72
2024/01/21 05:13:41;;;;;;;4.77;4.57;;;;;;;2.44;41.05;101781.22;4956281;28;20198;-72
2024/01/21 05:16:17;;;;;;;5.17;4.97;;;;;;;2.37;41.70;101778.97;4955678;28;20184;-72
2024/01/21 05:18:44;;;;;;;3.87;3.77;;;;;;;2.40;41.45;101778.81;4955939;28;20194;-72
2024/01/21 05:21:11;;;;;;;5.50;5.07;;;;;;;2.36;41.64;101779.88;4955512;28;20212;-72
2024/01/21 05:23:38;;;;;;;4.23;4.03;;;;;;;2.41;41.43;101767.34;4955456;28;20253;-72
2024/01/21 05:26:04;;;;;;;4.10;4.00;;;;;;;2.42;41.77;101750.59;4955840;28;20192;-72
2024/01/21 05:28:31;;;;;;;4.47;4.37;;;;;;;2.39;41.14;101758.63;4955728;28;20217;-71
2024/01/21 05:30:57;;;;;;;4.73;4.63;;;;;;;2.46;41.20;101752.97;4955718;28;20197;-71
2024/01/21 05:33:24;;;;;;;4.87;4.60;;;;;;;2.61;40.23;101751.38;4955449;28;20652;-72
2024/01/21 05:35:50;;;;;;;4.90;4.80;;;;;;;2.59;40.57;101753.25;4955433;28;20206;-72
2024/01/21 05:38:16;;;;;;;5.07;4.97;;;;;;;2.57;41.02;101750.66;4955351;28;20291;-71
2024/01/21 05:40:43;;;;;;;4.97;4.77;;;;;;;2.55;41.10;101754.31;4955592;28;20213;-72
2024/01/21 05:43:09;;;;;;;4.83;4.73;;;;;;;2.58;41.02;101749.75;4955872;28;20246;-72
2024/01/21 05:45:36;;;;;;;6.03;5.83;;;;;;;2.67;41.12;101746.63;4956160;28;20526;-72
2024/01/21 05:48:03;;;;;;;5.40;5.20;;;;;;;2.68;40.69;101740.44;4955212;28;20276;-72
2024/01/21 05:50:30;;;;;;;5.77;5.47;;;;;;;2.61;40.75;101738.19;4955505;28;20591;-72
2024/01/21 05:52:56;;;;;;;5.50;5.03;;;;;;;2.64;40.94;101744.16;4955478;28;20187;-72
2024/01/21 05:55:23;;;;;;;5.10;5.00;;;;;;;2.74;41.10;101734.00;4955178;28;20197;-72
2024/01/21 05:57:49;;;;;;;5.10;4.87;;;;;;;2.78;40.85;101739.97;4955125;29;20270;-72
2024/01/21 06:00:16;;;;;;;5.00;4.80;;;;;;;2.71;41.52;101729.72;4955024;28;20220;-72
2024/01/21 06:02:44;;;;;;;5.87;5.30;;;;;;;2.60;41.80;101724.13;4955114;28;20660;-72
2024/01/21 06:05:11;;;;;;;5.30;5.20;;;;;;;2.68;41.77;101715.81;4955656;28;20256;-72
2024/01/21 06:07:38;;;;;;;5.90;5.50;;;;;;;2.61;41.84;101712.63;4955295;28;20221;-72
2024/01/21 06:10:06;;;;;;;5.73;5.53;;;;;;;2.57;42.06;101695.25;4955390;28;20173;-72
2024/01/21 06:12:33;;;;;;;5.47;5.27;;;;;;;2.54;42.56;101695.41;4955658;28;20181;-72
2024/01/21 06:14:59;;;;;;;5.67;5.47;;;;;;;2.54;42.64;101684.84;4955337;28;20176;-72
2024/01/21 06:17:26;;;;;;;5.63;5.23;;;;;;;2.44;43.30;101694.16;4955093;28;20265;-71
2024/01/21 06:19:52;;;;;;;12.23;5.97;;;;;;;2.45;42.77;101676.53;4955274;28;20189;-72
2024/01/21 06:22:18;;;;;;;6.13;5.93;;;;;;;2.42;43.29;101669.59;4954882;28;20626;-72
2024/01/21 06:24:45;;;;;;;5.80;5.50;;;;;;;2.42;43.05;101680.16;4955207;28;20238;-72
2024/01/21 06:27:11;;;;;;;6.47;5.73;;;;;;;2.49;43.58;101686.00;4954802;28;20212;-72
2024/01/21 06:29:39;;;;;;;5.47;5.17;;;;;;;2.51;43.86;101690.25;4954904;28;20207;-72
2024/01/21 06:32:05;;;;;;;6.53;6.03;;;;;;;2.40;43.87;101697.88;4955129;28;20245;-72
2024/01/21 06:34:32;;;;;;;6.13;5.33;;;;;;;2.41;44.12;101699.59;4954841;28;20205;-72
2024/01/21 06:36:58;;;;;;;6.30;6.00;;;;;;;2.33;44.03;101698.25;4958505;28;20583;-71
2024/01/21 06:39:25;;;;;;;6.67;6.37;;;;;;;2.33;44.55;101691.19;4958585;28;20194;-72
2024/01/21 06:41:51;;;;;;;6.93;6.63;;;;;;;2.30;44.74;101691.31;4958966;28;20599;-72
2024/01/21 06:44:18;;;;;;;6.73;6.23;;;;;;;2.29;44.82;101684.38;4958480;28;20195;-72
2024/01/21 06:46:45;;;;;;;7.50;7.00;;;;;;;2.33;44.71;101675.38;4959026;28;20749;-72
2024/01/21 06:49:11;;;;;;;7.03;6.67;;;;;;;2.27;45.07;101675.66;4958392;28;20200;-72
2024/01/21 06:51:46;;;;;;;7.60;7.00;;;;;;;2.28;45.18;101664.19;4958891;28;20610;-72
2024/01/21 06:54:13;;;;;;;6.73;6.43;;;;;;;2.26;45.14;101658.09;4958328;28;20190;-72
2024/01/21 06:56:40;;;;;;;6.07;5.77;;;;;;;2.25;45.59;101662.53;4958633;28;20768;-72
2024/01/21 06:59:06;;;;;;;10.50;5.97;;;;;;;2.28;45.39;101711.66;4958076;28;20268;-72
2024/01/21 07:01:33;;;;;;;6.37;6.10;;;;;;;2.35;45.30;101720.13;4958423;28;20583;-72
2024/01/21 07:04:00;;;;;;;7.20;6.53;;;;;;;2.30;45.68;101723.84;4956918;29;20196;-72
2024/01/21 07:06:26;;;;;;;6.37;6.00;;;;;;;2.31;45.80;101727.34;4958291;28;20211;-72
2024/01/21 07:08:53;;;;;;;6.87;6.47;;;;;;;2.34;46.13;101721.91;4958797;28;20580;-72
2024/01/21 07:11:19;;;;;;;6.43;6.10;;;;;;;2.37;45.66;101734.13;4957966;28;20194;-72
2024/01/21 07:13:46;;;;;;;6.73;6.17;;;;;;;2.35;45.81;101733.31;4957934;28;20661;-72
2024/01/21 07:16:12;;;;;;;6.60;6.20;;;;;;;2.44;45.54;101743.44;4957829;28;20200;-71
2024/01/21 07:18:38;;;;;;;6.53;6.23;;;;;;;2.44;45.72;101732.88;4957865;28;20189;-72
2024/01/21 07:21:05;;;;;;;6.47;6.00;;;;;;;2.45;46.10;101731.94;4958034;28;20610;-72
2024/01/21 07:23:31;;;;;;;7.00;6.70;;;;;;;2.48;45.81;101737.06;4957961;28;20201;-72
2024/01/21 07:25:58;;;;;;;7.10;6.50;;;;;;;2.44;45.78;101733.72;4957960;28;20614;-72
2024/01/21 07:28:24;;;;;;;7.97;6.60;;;;;;;2.41;45.91;101735.66;4957581;28;20213;-72
2024/01/21 07:30:51;;;;;;;8.70;6.83;;;;;;;2.46;46.32;101749.50;4957948;28;20176;-72
2024/01/21 07:33:17;;;;;;;6.37;5.97;;;;;;;2.35;46.41;101744.72;4957979;28;20189;-72
2024/01/21 07:35:45;;;;;;;8.97;8.07;;;;;;;2.50;46.23;101746.63;4957556;28;20192;-72
2024/01/21 07:38:11;;;;;;;7.70;7.27;;;;;;;2.47;46.57;101753.81;4957411;28;20207;-71
2024/01/21 07:40:37;;;;;;;7.40;6.77;;;;;;;2.39;47.07;101761.25;4957407;28;20200;-71
2024/01/21 07:43:05;;;;;;;10.50;7.13;;;;;;;2.50;46.55;101757.19;4957391;28;20188;-71
2024/01/21 07:45:31;;;;;;;9.13;7.10;;;;;;;2.58;46.34;101767.38;4957349;28;20191;-72
2024/01/21 07:47:58;;;;;;;7.23;6.77;;;;;;;2.60;45.98;101771.63;4956008;28;20247;-72
2024/01/21 07:50:24;;;;;;;8.67;7.77;;;;;;;2.61;45.64;101775.13;4957322;28;20201;-72
2024/01/21 07:52:51;;;;;;;7.37;7.07;;;;;;;2.65;46.10;101768.75;4957298;28;20188;-72
2024/01/21 07:55:17;;;;;;;7.57;7.07;;;;;;;2.70;46.08;101770.25;4957211;28;20600;-72
2024/01/21 07:57:44;;;;;;;7.57;7.07;;;;;;;2.67;45.64;101770.38;4957513;28;20665;-72
2024/01/21 08:00:11;;;;;;;7.30;6.80;;;;;;;2.78;45.58;101772.50;4957131;28;20203;-72
2024/01/21 08:02:37;;;;;;;6.83;6.47;;;;;;;2.70;45.28;101754.41;4957580;28;20209;-72
2024/01/21 08:05:04;;;;;;;7.50;7.10;;;;;;;2.72;45.52;101762.25;4957302;28;20189;-72
2024/01/21 08:07:31;;;;;;;8.43;7.67;;;;;;;2.79;45.96;101752.25;4957055;28;20611;-72
2024/01/21 08:09:58;;;;;;;8.07;7.33;;;;;;;2.69;45.69;101744.78;4956939;28;20214;-72
2024/01/21 08:12:24;;;;;;;7.70;7.20;;;;;;;2.70;46.19;101735.06;4956888;28;20186;-72
2024/01/21 08:14:51;;;;;;;8.27;7.67;;;;;;;2.66;46.16;101734.38;4956822;28;20688;-72
2024/01/21 08:17:18;;;;;;;8.43;7.83;;;;;;;2.69;45.88;101752.69;4956795;28;20258;-72
2024/01/21 08:19:45;;;;;;;8.40;7.67;;;;;;;2.72;46.02;101738.47;4956749;28;20200;-72
2024/01/21 08:22:12;;;;;;;8.17;7.37;;;;;;;2.71;46.64;101729.72;4957220;28;20207;-72
2024/01/21 08:24:38;;;;;;;8.33;7.53;;;;;;;2.65;46.33;101718.59;4956613;28;20569;-72
2024/01/21 08:27:05;;;;;;;8.47;7.70;;;;;;;2.65;45.93;101715.97;4956509;28;20280;-72
2024/01/21 08:29:32;;;;;;;9.20;8.40;;;;;;;2.71;46.57;101713.91;4956801;28;20190;-72
2024/01/21 08:31:59;;;;;;;8.87;8.00;;;;;;;2.72;45.81;101705.00;4957014;28;20192;-72
2024/01/21 08:34:25;;;;;;;7.93;7.40;;;;;;;2.72;45.90;101710.28;4956454;28;20733;-72
2024/01/21 08:36:56;;;;;;;8.47;7.67;;;;;;;2.71;46.26;101695.41;4956634;28;20213;-72
2024/01/21 08:39:23;;;;;;;10.43;9.50;;;;;;;2.76;46.72;101703.06;4956618;28;20306;-72
2024/01/21 08:41:50;;;;;;;8.50;7.90;;;;;;;2.82;46.09;101742.38;4956254;28;20268;-72
2024/01/21 08:44:17;;;;;;;7.93;7.33;;;;;;;2.78;46.44;101737.31;4956275;28;20193;-72
2024/01/21 08:46:46;;;;;;;8.60;8.10;;;;;;;2.89;46.48;101746.41;4956141;28;20212;-70
2024/01/21 08:49:13;;;;;;;8.47;7.67;;;;;;;2.84;45.97;101764.31;4956444;28;20582;-70
2024/01/21 08:51:41;;;;;;;8.90;8.17;;;;;;;2.87;46.27;101795.81;4956683;28;20197;-70
2024/01/21 08:54:08;;;;;;;10.80;9.37;;;;;;;2.94;46.64;101801.63;4956120;28;20654;-70
2024/01/21 08:56:35;;;;;;;9.40;8.53;;;;;;;2.98;46.35;101813.75;4956005;28;20584;-70
2024/01/21 08:59:01;;;;;;;9.07;8.27;;;;;;;3.01;46.22;101827.66;4955809;28;20598;-70
2024/01/21 09:01:29;;;;;;;9.23;8.60;;;;;;;3.09;45.90;101819.38;4956185;28;20213;-70
2024/01/21 09:03:56;;;;;;;11.13;9.00;;;;;;;3.17;46.17;101806.63;4955915;28;20191;-70
2024/01/21 09:06:23;;;;;;;10.57;9.50;;;;;;;3.09;46.75;101777.13;4955801;28;20666;-70
2024/01/21 09:08:52;;;;;;;14.77;9.47;;;;;;;3.06;46.48;101774.59;4955773;28;20244;-70
2024/01/21 09:11:20;;;;;;;9.37;8.57;;;;;;;3.12;46.22;101819.22;4955761;28;20199;-71
2024/01/21 09:13:46;;;;;;;9.90;8.93;;;;;;;3.22;45.68;101808.09;4956001;28;20208;-71
2024/01/21 09:16:16;;;;;;;9.13;8.33;;;;;;;3.33;45.98;101811.97;4955677;28;20188;-71
2024/01/21 09:18:43;;;;;;;10.13;9.20;;;;;;;3.20;46.25;101812.63;4956226;28;20536;-71
2024/01/21 09:21:10;;;;;;;11.17;8.20;;;;;;;3.25;45.52;101827.38;4955879;28;20206;-71
2024/01/21 09:23:54;;;;;;;10.50;9.47;;;;;;;3.26;45.89;101821.16;4955630;28;20181;-71
2024/01/21 09:26:21;;;;;;;9.53;8.70;;;;;;;3.26;45.45;101813.25;4955467;28;20197;-70
2024/01/21 09:28:47;;;;;;;8.80;8.13;;;;;;;3.33;45.46;101817.28;4955856;28;20174;-71
2024/01/21 09:31:14;;;;;;;10.93;9.23;;;;;;;3.29;45.92;101813.94;4955492;28;20194;-71
2024/01/21 09:33:40;;;;;;;9.47;8.57;;;;;;;3.27;46.03;101820.25;4955689;28;20252;-71
2024/01/21 09:36:07;;;;;;;9.70;8.90;;;;;;;3.26;45.93;101822.03;4954779;29;20195;-71
2024/01/21 09:38:34;;;;;;;14.17;8.67;;;;;;;3.37;46.38;101819.69;4955394;28;20208;-71
2024/01/21 09:41:11;;;;;;;15.87;9.37;;;;;;;3.33;46.35;101810.19;4955306;28;20551;-71
2024/01/21 09:43:41;;;;;;;9.87;9.03;;;;;;;3.33;45.64;101818.13;4955314;28;20320;-71
2024/01/21 09:46:11;;;;;;;10.17;9.07;;;;;;;3.33;46.05;101814.63;4955876;28;20192;-71
2024/01/21 09:48:38;;;;;;;9.27;8.23;;;;;;;3.26;46.21;101816.75;4955855;28;20185;-71
2024/01/21 09:51:06;;;;;;;11.43;8.80;;;;;;;3.33;46.45;101815.47;4955308;28;20663;-71
2024/01/21 09:53:33;;;;;;;10.20;9.20;;;;;;;3.32;46.05;101811.13;4955238;28;20185;-71
2024/01/21 09:56:06;;;;;;;10.30;9.23;;;;;;;3.42;47.09;101820.31;4955233;28;20224;-71
2024/01/21 09:58:54;;;;;;;10.07;9.07;;;;;;;3.42;47.74;101809.72;4953722;28;20240;-71
2024/01/21 10:01:21;;;;;;;9.20;8.30;;;;;;;3.42;48.18;101808.88;4955305;28;20205;-71
2024/01/21 10:03:50;;;;;;;10.93;8.80;;;;;;;3.45;48.58;101796.34;4955394;28;20673;-71
2024/01/21 10:06:20;;;;;;;9.70;8.97;;;;;;;3.54;49.18;101795.88;4955545;28;20518;-71
2024/01/21 10:08:47;;;;;;;13.43;9.13;;;;;;;3.71;49.35;101786.19;4955044;28;20244;-71
2024/01/21 10:11:13;;;;;;;12.60;9.77;;;;;;;3.78;50.11;101780.47;4958103;28;20236;-71
2024/01/21 10:13:39;;;;;;;10.40;9.10;;;;;;;3.89;50.34;101780.78;4959005;28;20245;-71
2024/01/21 10:16:06;;;;;;;13.80;10.37;;;;;;;4.05;50.78;101786.06;4959524;28;20512;-71
2024/01/21 10:18:34;;;;;;;9.53;8.50;;;;;;;4.07;51.07;101797.44;4958864;29;20266;-71
2024/01/21 10:21:05;;;;;;;12.30;8.53;;;;;;;4.09;51.24;101796.41;4959425;28;20189;-71
2024/01/21 10:23:32;;;;;;;8.90;8.20;;;;;;;4.15;51.30;101805.81;4958876;28;20581;-71
2024/01/21 10:25:58;;;;;;;12.43;8.53;;;;;;;4.17;51.81;101805.69;4959031;28;20199;-72
2024/01/21 10:28:26;;;;;;;9.97;8.93;;;;;;;4.12;51.67;101798.00;4958650;28;20272;-71
2024/01/21 10:30:52;;;;;;;9.30;8.43;;;;;;;4.17;52.21;101811.84;4959319;28;20170;-71
2024/01/21 10:33:19;;;;;;;10.20;7.77;;;;;;;4.20;52.40;101822.25;4958906;28;20658;-71
2024/01/21 10:35:47;;;;;;;9.83;8.97;;;;;;;4.20;51.60;101832.84;4958926;28;20553;-71
2024/01/21 10:38:15;;;;;;;9.30;8.60;;;;;;;4.21;51.80;101825.75;4958466;28;20213;-71
2024/01/21 10:40:45;;;;;;;9.83;8.93;;;;;;;4.21;51.98;101826.63;4959094;28;20206;-71
2024/01/21 10:43:16;;;;;;;9.73;9.00;;;;;;;4.23;51.87;101832.69;4958649;28;20553;-71
2024/01/21 10:45:47;;;;;;;13.80;10.07;;;;;;;4.21;51.97;101833.72;4958571;28;20688;-71
2024/01/21 10:48:14;;;;;;;12.50;10.73;;;;;;;4.15;52.74;101826.97;4958331;28;20580;-71
2024/01/21 10:50:42;;;;;;;10.77;9.53;;;;;;;4.10;52.86;101839.59;4958612;28;20226;-71
2024/01/21 10:53:12;;;;;;;10.40;9.53;;;;;;;4.10;52.82;101845.75;4958288;28;20218;-71
2024/01/21 10:55:40;;;;;;;9.70;8.80;;;;;;;4.11;53.43;101841.31;4958444;28;20187;-71
2024/01/21 10:58:08;;;;;;;17.30;9.67;;;;;;;4.12;53.63;101833.28;4958182;28;20202;-71
2024/01/21 11:00:36;;;;;;;15.50;9.67;;;;;;;4.10;53.83;101821.06;4958131;28;20591;-71
2024/01/21 11:03:25;;;;;;;16.80;11.37;;;;;;;4.01;53.89;101819.78;4958357;28;20547;-71
2024/01/21 11:05:54;;;;;;;10.97;9.47;;;;;;;4.01;54.49;101814.50;4958118;28;20195;-71
2024/01/21 11:08:23;;;;;;;10.30;9.20;;;;;;;4.05;54.86;101807.22;4957900;28;20294;-71
2024/01/21 11:11:09;;;;;;;9.40;8.57;;;;;;;4.08;55.14;101807.06;4958280;28;20237;-71
2024/01/21 11:13:45;;;;;;;11.07;9.30;;;;;;;4.02;56.06;101807.41;4958538;28;20230;-71
2024/01/21 11:16:26;;;;;;;10.57;9.33;;;;;;;4.01;56.42;101810.97;4957111;29;20190;-71
2024/01/21 11:18:56;;;;;;;12.90;9.47;;;;;;;4.06;56.75;101827.47;4958132;28;20193;-71
2024/01/21 11:21:25;;;;;;;9.60;8.67;;;;;;;4.00;57.55;101818.06;4957468;28;20261;-71
2024/01/21 11:24:04;;;;;;;9.63;8.70;;;;;;;3.99;59.27;101818.13;4957739;28;20222;-71
2024/01/21 11:26:35;;;;;;;12.87;10.83;;;;;;;3.98;58.91;101819.97;4957866;28;20213;-71
2024/01/21 11:29:05;;;;;;;10.60;9.60;;;;;;;3.98;59.28;101813.81;4957946;28;20208;-71
2024/01/21 11:31:34;;;;;;;11.30;10.10;;;;;;;3.93;59.25;101810.56;4957570;28;20178;-71